sensor_id;sensor_type;location;lat;lon;timestamp;temperature;humidity
19483;DHT22;9882;51.166;6.992;2023-05-17T00:02:06;12.80;99.90
19483;DHT22;9882;51.166;6.992;2023-05-17T00:04:35;12.80;99.90
19483;DHT22;9882;51.166;6.992;2023-05-17T00:07:04;12.80;99.90
19483;DHT22;9882;51.166;6.992;2023-05-17T00:09:33;12.80;99.90
19483;DHT22;9882;51.166;6.992;2023-05-17T00:12:06;12.80;99.90
19483;DHT22;9882;51.166;6.992;2023-05-17T00:14:36;12.70;99.90
19483;DHT22;9882;51.166;6.992;2023-05-17T00:17:05;12.70;99.90
19483;DHT22;9882;51.166;6.992;2023-05-17T00:19:35;12.60;99.90
19483;DHT22;9882;51.166;6.992;2023-05-17T00:22:04;12.60;99.90
19483;DHT22;9882;51.166;6.992;2023-05-17T00:24:34;12.60;99.90
19483;DHT22;9882;51.166;6.992;2023-05-17T00:27:04;12.50;99.90
19483;DHT22;9882;51.166;6.992;2023-05-17T00:29:34;12.50;99.90
19483;DHT22;9882;51.166;6.992;2023-05-17T00:32:04;12.50;99.90
19483;DHT22;9882;51.166;6.992;2023-05-17T00:34:34;12.50;99.90
19483;DHT22;9882;51.166;6.992;2023-05-17T00:37:03;12.40;99.90
19483;DHT22;9882;51.166;6.992;2023-05-17T00:39:35;12.40;99.90
19483;DHT22;9882;51.166;6.992;2023-05-17T00:42:05;12.40;99.90
19483;DHT22;9882;51.166;6.992;2023-05-17T00:44:36;12.40;99.90
19483;DHT22;9882;51.166;6.992;2023-05-17T00:47:05;12.30;99.90
19483;DHT22;9882;51.166;6.992;2023-05-17T00:49:35;12.40;99.90
19483;DHT22;9882;51.166;6.992;2023-05-17T00:52:04;12.30;99.90
19483;DHT22;9882;51.166;6.992;2023-05-17T00:54:35;12.20;99.90
19483;DHT22;9882;51.166;6.992;2023-05-17T00:57:04;12.20;99.90
19483;DHT22;9882;51.166;6.992;2023-05-17T00:59:33;12.20;99.90
19483;DHT22;9882;51.166;6.992;2023-05-17T01:02:05;12.20;99.90
19483;DHT22;9882;51.166;6.992;2023-05-17T01:04:33;12.10;99.90
19483;DHT22;9882;51.166;6.992;2023-05-17T01:07:02;12.10;99.90
19483;DHT22;9882;51.166;6.992;2023-05-17T01:09:31;12.10;99.90
19483;DHT22;9882;51.166;6.992;2023-05-17T01:12:09;12.00;99.90
19483;DHT22;9882;51.166;6.992;2023-05-17T01:14:46;12.00;99.90
19483;DHT22;9882;51.166;6.992;2023-05-17T01:17:26;12.00;99.90
19483;DHT22;9882;51.166;6.992;2023-05-17T01:20:00;11.90;99.90
19483;DHT22;9882;51.166;6.992;2023-05-17T01:22:42;11.90;99.90
19483;DHT22;9882;51.166;6.992;2023-05-17T01:25:34;11.90;99.90
19483;DHT22;9882;51.166;6.992;2023-05-17T01:28:05;11.80;99.90
19483;DHT22;9882;51.166;6.992;2023-05-17T01:30:35;11.80;99.90
19483;DHT22;9882;51.166;6.992;2023-05-17T01:33:05;11.80;99.90
19483;DHT22;9882;51.166;6.992;2023-05-17T01:35:34;11.80;99.90
19483;DHT22;9882;51.166;6.992;2023-05-17T01:38:02;11.70;99.90
19483;DHT22;9882;51.166;6.992;2023-05-17T01:40:34;11.70;99.90
19483;DHT22;9882;51.166;6.992;2023-05-17T01:43:13;11.70;99.90
19483;DHT22;9882;51.166;6.992;2023-05-17T01:45:51;11.70;99.90
19483;DHT22;9882;51.166;6.992;2023-05-17T01:48:24;11.60;99.90
19483;DHT22;9882;51.166;6.992;2023-05-17T01:50:58;11.60;99.90
19483;DHT22;9882;51.166;6.992;2023-05-17T01:53:29;11.60;99.90
19483;DHT22;9882;51.166;6.992;2023-05-17T01:56:02;11.50;99.90
19483;DHT22;9882;51.166;6.992;2023-05-17T01:58:41;11.50;99.90
19483;DHT22;9882;51.166;6.992;2023-05-17T02:01:13;11.50;99.90
19483;DHT22;9882;51.166;6.992;2023-05-17T02:03:43;11.50;99.90
19483;DHT22;9882;51.166;6.992;2023-05-17T02:06:14;11.50;99.90
19483;DHT22;9882;51.166;6.992;2023-05-17T02:08:43;11.50;99.90
19483;DHT22;9882;51.166;6.992;2023-05-17T02:11:12;11.40;99.90
19483;DHT22;9882;51.166;6.992;2023-05-17T02:13:42;11.40;99.90
19483;DHT22;9882;51.166;6.992;2023-05-17T02:16:10;11.30;99.90
19483;DHT22;9882;51.166;6.992;2023-05-17T02:18:39;11.30;99.90
19483;DHT22;9882;51.166;6.992;2023-05-17T02:21:07;11.30;99.90
19483;DHT22;9882;51.166;6.992;2023-05-17T02:23:36;11.30;99.90
19483;DHT22;9882;51.166;6.992;2023-05-17T02:26:04;11.30;99.90
19483;DHT22;9882;51.166;6.992;2023-05-17T02:28:33;11.20;99.90
19483;DHT22;9882;51.166;6.992;2023-05-17T02:31:06;11.20;99.90
19483;DHT22;9882;51.166;6.992;2023-05-17T02:33:34;11.20;99.90
19483;DHT22;9882;51.166;6.992;2023-05-17T02:36:03;11.20;99.90
19483;DHT22;9882;51.166;6.992;2023-05-17T02:38:32;11.20;99.90
19483;DHT22;9882;51.166;6.992;2023-05-17T02:41:00;11.10;99.90
19483;DHT22;9882;51.166;6.992;2023-05-17T02:43:31;11.10;99.90
19483;DHT22;9882;51.166;6.992;2023-05-17T02:45:59;11.10;99.90
19483;DHT22;9882;51.166;6.992;2023-05-17T02:48:29;11.10;99.90
19483;DHT22;9882;51.166;6.992;2023-05-17T02:50:57;11.10;99.90
19483;DHT22;9882;51.166;6.992;2023-05-17T02:53:26;11.00;99.90
19483;DHT22;9882;51.166;6.992;2023-05-17T02:55:55;11.00;99.90
19483;DHT22;9882;51.166;6.992;2023-05-17T02:58:24;11.00;99.90
19483;DHT22;9882;51.166;6.992;2023-05-17T03:00:53;10.90;99.90
19483;DHT22;9882;51.166;6.992;2023-05-17T03:03:21;10.90;99.90
19483;DHT22;9882;51.166;6.992;2023-05-17T03:05:51;10.90;99.90
19483;DHT22;9882;51.166;6.992;2023-05-17T03:08:21;10.90;99.90
19483;DHT22;9882;51.166;6.992;2023-05-17T03:10:49;10.90;99.90
19483;DHT22;9882;51.166;6.992;2023-05-17T03:13:18;10.80;99.90
19483;DHT22;9882;51.166;6.992;2023-05-17T03:15:47;10.80;99.90
19483;DHT22;9882;51.166;6.992;2023-05-17T03:18:16;10.80;99.90
19483;DHT22;9882;51.166;6.992;2023-05-17T03:20:46;10.80;99.90
19483;DHT22;9882;51.166;6.992;2023-05-17T03:23:16;10.80;99.90
19483;DHT22;9882;51.166;6.992;2023-05-17T03:25:58;10.70;99.90
19483;DHT22;9882;51.166;6.992;2023-05-17T03:28:31;10.70;99.90
19483;DHT22;9882;51.166;6.992;2023-05-17T03:30:59;10.70;99.90
19483;DHT22;9882;51.166;6.992;2023-05-17T03:33:31;10.70;99.90
19483;DHT22;9882;51.166;6.992;2023-05-17T03:36:00;10.60;99.90
19483;DHT22;9882;51.166;6.992;2023-05-17T03:38:30;10.70;99.90
19483;DHT22;9882;51.166;6.992;2023-05-17T03:40:58;10.60;99.90
19483;DHT22;9882;51.166;6.992;2023-05-17T03:43:27;10.60;99.90
19483;DHT22;9882;51.166;6.992;2023-05-17T03:45:59;10.60;99.90
19483;DHT22;9882;51.166;6.992;2023-05-17T03:48:29;10.60;99.90
19483;DHT22;9882;51.166;6.992;2023-05-17T03:50:58;10.50;99.90
19483;DHT22;9882;51.166;6.992;2023-05-17T03:53:27;10.50;99.90
19483;DHT22;9882;51.166;6.992;2023-05-17T03:55:57;10.60;99.90
19483;DHT22;9882;51.166;6.992;2023-05-17T03:58:26;10.50;99.90
19483;DHT22;9882;51.166;6.992;2023-05-17T04:00:54;10.50;99.90
19483;DHT22;9882;51.166;6.992;2023-05-17T04:03:23;10.50;99.90
19483;DHT22;9882;51.166;6.992;2023-05-17T04:05:51;10.50;99.90
19483;DHT22;9882;51.166;6.992;2023-05-17T04:08:20;10.40;99.90
19483;DHT22;9882;51.166;6.992;2023-05-17T04:10:48;10.40;99.90
19483;DHT22;9882;51.166;6.992;2023-05-17T04:13:18;10.40;99.90
19483;DHT22;9882;51.166;6.992;2023-05-17T04:15:47;10.50;99.90
19483;DHT22;9882;51.166;6.992;2023-05-17T04:18:16;10.50;99.90
19483;DHT22;9882;51.166;6.992;2023-05-17T04:20:45;10.40;99.90
19483;DHT22;9882;51.166;6.992;2023-05-17T04:23:13;10.40;99.90
19483;DHT22;9882;51.166;6.992;2023-05-17T04:25:42;10.40;99.90
19483;DHT22;9882;51.166;6.992;2023-05-17T04:28:11;10.50;99.90
19483;DHT22;9882;51.166;6.992;2023-05-17T04:30:42;10.40;99.90
19483;DHT22;9882;51.166;6.992;2023-05-17T04:33:11;10.40;99.90
19483;DHT22;9882;51.166;6.992;2023-05-17T04:35:41;10.40;99.90
19483;DHT22;9882;51.166;6.992;2023-05-17T04:38:09;10.40;99.90
19483;DHT22;9882;51.166;6.992;2023-05-17T04:40:38;10.40;99.90
19483;DHT22;9882;51.166;6.992;2023-05-17T04:43:07;10.40;99.90
19483;DHT22;9882;51.166;6.992;2023-05-17T04:45:36;10.50;99.90
19483;DHT22;9882;51.166;6.992;2023-05-17T04:48:06;10.50;99.90
19483;DHT22;9882;51.166;6.992;2023-05-17T04:50:35;10.50;99.90
19483;DHT22;9882;51.166;6.992;2023-05-17T04:53:04;10.50;99.90
19483;DHT22;9882;51.166;6.992;2023-05-17T04:55:35;10.50;99.90
19483;DHT22;9882;51.166;6.992;2023-05-17T04:58:04;10.40;99.90
19483;DHT22;9882;51.166;6.992;2023-05-17T05:00:33;10.40;99.90
19483;DHT22;9882;51.166;6.992;2023-05-17T05:03:06;10.40;99.90
19483;DHT22;9882;51.166;6.992;2023-05-17T05:05:35;10.40;99.90
19483;DHT22;9882;51.166;6.992;2023-05-17T05:08:04;10.40;99.90
19483;DHT22;9882;51.166;6.992;2023-05-17T05:10:33;10.00;99.90
19483;DHT22;9882;51.166;6.992;2023-05-17T05:13:02;9.90;99.90
19483;DHT22;9882;51.166;6.992;2023-05-17T05:15:31;10.10;99.90
19483;DHT22;9882;51.166;6.992;2023-05-17T05:18:00;10.20;99.90
19483;DHT22;9882;51.166;6.992;2023-05-17T05:20:33;9.70;99.90
19483;DHT22;9882;51.166;6.992;2023-05-17T05:23:04;9.70;99.90
19483;DHT22;9882;51.166;6.992;2023-05-17T05:25:36;9.90;99.90
19483;DHT22;9882;51.166;6.992;2023-05-17T05:28:05;9.80;99.90
19483;DHT22;9882;51.166;6.992;2023-05-17T05:30:37;9.30;99.90
19483;DHT22;9882;51.166;6.992;2023-05-17T05:33:06;9.00;99.90
19483;DHT22;9882;51.166;6.992;2023-05-17T05:35:37;8.60;99.90
19483;DHT22;9882;51.166;6.992;2023-05-17T05:38:06;9.00;99.90
19483;DHT22;9882;51.166;6.992;2023-05-17T05:40:35;8.80;99.90
19483;DHT22;9882;51.166;6.992;2023-05-17T05:43:04;8.70;99.90
19483;DHT22;9882;51.166;6.992;2023-05-17T05:45:32;9.00;99.90
19483;DHT22;9882;51.166;6.992;2023-05-17T05:48:02;8.70;99.90
19483;DHT22;9882;51.166;6.992;2023-05-17T05:50:33;8.70;99.90
19483;DHT22;9882;51.166;6.992;2023-05-17T05:53:09;8.60;99.90
19483;DHT22;9882;51.166;6.992;2023-05-17T05:55:46;8.90;99.90
19483;DHT22;9882;51.166;6.992;2023-05-17T05:58:15;8.90;99.90
19483;DHT22;9882;51.166;6.992;2023-05-17T06:00:47;9.10;99.90
19483;DHT22;9882;51.166;6.992;2023-05-17T06:03:15;8.90;99.90
19483;DHT22;9882;51.166;6.992;2023-05-17T06:05:44;8.90;99.90
19483;DHT22;9882;51.166;6.992;2023-05-17T06:08:14;9.10;99.90
19483;DHT22;9882;51.166;6.992;2023-05-17T06:10:44;9.10;99.90
19483;DHT22;9882;51.166;6.992;2023-05-17T06:13:12;9.20;99.90
19483;DHT22;9882;51.166;6.992;2023-05-17T06:15:41;9.40;99.90
19483;DHT22;9882;51.166;6.992;2023-05-17T06:18:09;9.50;99.90
19483;DHT22;9882;51.166;6.992;2023-05-17T06:20:38;9.50;99.90
19483;DHT22;9882;51.166;6.992;2023-05-17T06:23:07;9.50;99.90
19483;DHT22;9882;51.166;6.992;2023-05-17T06:25:37;9.40;99.90
19483;DHT22;9882;51.166;6.992;2023-05-17T06:28:05;9.50;99.90
19483;DHT22;9882;51.166;6.992;2023-05-17T06:30:35;9.50;99.90
19483;DHT22;9882;51.166;6.992;2023-05-17T06:33:03;9.60;99.90
19483;DHT22;9882;51.166;6.992;2023-05-17T06:35:33;9.60;99.90
19483;DHT22;9882;51.166;6.992;2023-05-17T06:38:07;9.60;99.90
19483;DHT22;9882;51.166;6.992;2023-05-17T06:40:37;9.70;99.90
19483;DHT22;9882;51.166;6.992;2023-05-17T06:43:06;9.70;99.90
19483;DHT22;9882;51.166;6.992;2023-05-17T06:45:34;9.80;99.90
19483;DHT22;9882;51.166;6.992;2023-05-17T06:48:03;9.90;99.90
19483;DHT22;9882;51.166;6.992;2023-05-17T06:50:32;9.90;99.90
19483;DHT22;9882;51.166;6.992;2023-05-17T06:53:00;9.90;99.90
19483;DHT22;9882;51.166;6.992;2023-05-17T06:55:29;9.90;99.90
19483;DHT22;9882;51.166;6.992;2023-05-17T06:57:59;10.00;99.90
19483;DHT22;9882;51.166;6.992;2023-05-17T07:00:28;10.00;99.90
19483;DHT22;9882;51.166;6.992;2023-05-17T07:02:56;10.00;99.90
19483;DHT22;9882;51.166;6.992;2023-05-17T07:05:25;10.20;99.90
19483;DHT22;9882;51.166;6.992;2023-05-17T07:07:55;10.10;99.90
19483;DHT22;9882;51.166;6.992;2023-05-17T07:10:24;10.30;99.90
19483;DHT22;9882;51.166;6.992;2023-05-17T07:12:52;10.40;99.90
19483;DHT22;9882;51.166;6.992;2023-05-17T07:15:22;10.50;99.90
19483;DHT22;9882;51.166;6.992;2023-05-17T07:17:51;10.60;99.90
19483;DHT22;9882;51.166;6.992;2023-05-17T07:20:19;10.60;99.90
19483;DHT22;9882;51.166;6.992;2023-05-17T07:22:48;10.70;99.90
19483;DHT22;9882;51.166;6.992;2023-05-17T07:25:17;10.70;99.90
19483;DHT22;9882;51.166;6.992;2023-05-17T07:27:47;10.60;99.90
19483;DHT22;9882;51.166;6.992;2023-05-17T07:30:15;10.70;99.90
19483;DHT22;9882;51.166;6.992;2023-05-17T07:32:45;11.00;99.90
19483;DHT22;9882;51.166;6.992;2023-05-17T07:35:16;10.90;99.90
19483;DHT22;9882;51.166;6.992;2023-05-17T07:37:45;10.80;99.90
19483;DHT22;9882;51.166;6.992;2023-05-17T07:40:14;10.90;99.90
19483;DHT22;9882;51.166;6.992;2023-05-17T07:42:43;10.80;99.90
19483;DHT22;9882;51.166;6.992;2023-05-17T07:45:11;10.80;99.90
19483;DHT22;9882;51.166;6.992;2023-05-17T07:47:40;10.80;99.90
19483;DHT22;9882;51.166;6.992;2023-05-17T07:50:10;10.90;99.90
19483;DHT22;9882;51.166;6.992;2023-05-17T07:52:39;11.00;99.90
19483;DHT22;9882;51.166;6.992;2023-05-17T07:55:08;11.20;99.90
19483;DHT22;9882;51.166;6.992;2023-05-17T07:57:37;11.40;99.90
19483;DHT22;9882;51.166;6.992;2023-05-17T08:00:06;11.50;99.90
19483;DHT22;9882;51.166;6.992;2023-05-17T08:02:39;11.60;99.90
19483;DHT22;9882;51.166;6.992;2023-05-17T08:05:09;11.70;99.90
19483;DHT22;9882;51.166;6.992;2023-05-17T08:07:38;11.60;99.90
19483;DHT22;9882;51.166;6.992;2023-05-17T08:10:07;11.80;99.90
19483;DHT22;9882;51.166;6.992;2023-05-17T08:12:36;11.50;99.90
19483;DHT22;9882;51.166;6.992;2023-05-17T08:15:05;11.50;99.90
19483;DHT22;9882;51.166;6.992;2023-05-17T08:17:34;11.70;99.90
19483;DHT22;9882;51.166;6.992;2023-05-17T08:20:03;11.90;99.90
19483;DHT22;9882;51.166;6.992;2023-05-17T08:22:35;11.90;99.90
19483;DHT22;9882;51.166;6.992;2023-05-17T08:25:04;12.10;99.90
19483;DHT22;9882;51.166;6.992;2023-05-17T08:27:33;12.20;99.90
19483;DHT22;9882;51.166;6.992;2023-05-17T08:30:02;12.30;99.90
19483;DHT22;9882;51.166;6.992;2023-05-17T08:32:33;12.10;99.90
19483;DHT22;9882;51.166;6.992;2023-05-17T08:35:02;12.20;99.90
19483;DHT22;9882;51.166;6.992;2023-05-17T08:37:31;12.00;99.90
19483;DHT22;9882;51.166;6.992;2023-05-17T08:40:01;11.40;99.90
19483;DHT22;9882;51.166;6.992;2023-05-17T08:42:29;11.40;99.90
19483;DHT22;9882;51.166;6.992;2023-05-17T08:45:19;11.20;99.90
19483;DHT22;9882;51.166;6.992;2023-05-17T08:47:51;11.30;99.90
19483;DHT22;9882;51.166;6.992;2023-05-17T08:50:27;11.30;99.90
19483;DHT22;9882;51.166;6.992;2023-05-17T08:53:01;11.40;99.90
19483;DHT22;9882;51.166;6.992;2023-05-17T08:55:32;11.50;99.90
19483;DHT22;9882;51.166;6.992;2023-05-17T08:58:01;11.50;99.90
19483;DHT22;9882;51.166;6.992;2023-05-17T09:00:30;11.80;99.90
19483;DHT22;9882;51.166;6.992;2023-05-17T09:03:01;11.80;99.90
19483;DHT22;9882;51.166;6.992;2023-05-17T09:05:30;11.80;99.90
19483;DHT22;9882;51.166;6.992;2023-05-17T09:07:58;11.80;99.90
19483;DHT22;9882;51.166;6.992;2023-05-17T09:10:27;11.90;99.90
19483;DHT22;9882;51.166;6.992;2023-05-17T09:12:59;12.10;99.90
19483;DHT22;9882;51.166;6.992;2023-05-17T09:15:27;12.30;99.90
19483;DHT22;9882;51.166;6.992;2023-05-17T09:17:57;12.50;99.90
19483;DHT22;9882;51.166;6.992;2023-05-17T09:20:27;12.80;99.90
19483;DHT22;9882;51.166;6.992;2023-05-17T09:23:00;12.70;99.90
19483;DHT22;9882;51.166;6.992;2023-05-17T09:25:30;12.80;99.90
19483;DHT22;9882;51.166;6.992;2023-05-17T09:28:02;12.90;99.90
19483;DHT22;9882;51.166;6.992;2023-05-17T09:30:31;13.20;99.90
19483;DHT22;9882;51.166;6.992;2023-05-17T09:33:04;13.00;99.90
19483;DHT22;9882;51.166;6.992;2023-05-17T09:35:34;12.70;99.90
19483;DHT22;9882;51.166;6.992;2023-05-17T09:38:06;13.10;99.90
19483;DHT22;9882;51.166;6.992;2023-05-17T09:40:39;13.20;99.90
19483;DHT22;9882;51.166;6.992;2023-05-17T09:43:09;12.90;99.90
19483;DHT22;9882;51.166;6.992;2023-05-17T09:45:38;13.00;99.90
19483;DHT22;9882;51.166;6.992;2023-05-17T09:48:12;12.90;99.90
19483;DHT22;9882;51.166;6.992;2023-05-17T09:50:44;12.70;99.90
19483;DHT22;9882;51.166;6.992;2023-05-17T09:53:24;12.80;99.90
19483;DHT22;9882;51.166;6.992;2023-05-17T09:55:54;12.90;99.90
19483;DHT22;9882;51.166;6.992;2023-05-17T09:58:25;12.90;99.90
19483;DHT22;9882;51.166;6.992;2023-05-17T10:00:58;13.10;99.90
19483;DHT22;9882;51.166;6.992;2023-05-17T10:03:30;13.00;99.90
19483;DHT22;9882;51.166;6.992;2023-05-17T10:06:00;13.40;99.90
19483;DHT22;9882;51.166;6.992;2023-05-17T10:08:50;13.60;99.90
19483;DHT22;9882;51.166;6.992;2023-05-17T10:11:23;13.70;99.90
19483;DHT22;9882;51.166;6.992;2023-05-17T10:14:09;13.70;99.90
19483;DHT22;9882;51.166;6.992;2023-05-17T10:16:38;14.00;99.90
19483;DHT22;9882;51.166;6.992;2023-05-17T10:19:08;13.50;99.90
19483;DHT22;9882;51.166;6.992;2023-05-17T10:21:39;13.50;99.90
19483;DHT22;9882;51.166;6.992;2023-05-17T10:24:09;13.60;99.90
19483;DHT22;9882;51.166;6.992;2023-05-17T10:26:38;13.50;99.90
19483;DHT22;9882;51.166;6.992;2023-05-17T10:29:09;13.60;99.90
19483;DHT22;9882;51.166;6.992;2023-05-17T10:31:40;13.60;99.90
19483;DHT22;9882;51.166;6.992;2023-05-17T10:34:11;13.90;99.90
19483;DHT22;9882;51.166;6.992;2023-05-17T10:36:43;14.20;99.90
19483;DHT22;9882;51.166;6.992;2023-05-17T10:39:13;14.50;99.90
19483;DHT22;9882;51.166;6.992;2023-05-17T10:41:43;14.40;99.90
19483;DHT22;9882;51.166;6.992;2023-05-17T10:44:15;14.50;99.90
19483;DHT22;9882;51.166;6.992;2023-05-17T10:46:53;14.80;99.90
19483;DHT22;9882;51.166;6.992;2023-05-17T10:49:27;14.90;99.90
19483;DHT22;9882;51.166;6.992;2023-05-17T11:00:02;14.10;99.90
19483;DHT22;9882;51.166;6.992;2023-05-17T11:06:47;13.40;99.90
19483;DHT22;9882;51.166;6.992;2023-05-17T11:10:02;13.70;99.90
19483;DHT22;9882;51.166;6.992;2023-05-17T11:16:38;14.20;99.90
19483;DHT22;9882;51.166;6.992;2023-05-17T11:20:04;13.70;99.90
19483;DHT22;9882;51.166;6.992;2023-05-17T11:23:03;13.90;99.90
19483;DHT22;9882;51.166;6.992;2023-05-17T11:27:32;13.90;99.90
19483;DHT22;9882;51.166;6.992;2023-05-17T11:34:12;14.40;99.90
19483;DHT22;9882;51.166;6.992;2023-05-17T11:37:38;14.60;99.90
19483;DHT22;9882;51.166;6.992;2023-05-17T11:40:26;14.80;99.90
19483;DHT22;9882;51.166;6.992;2023-05-17T11:43:22;14.30;99.90
19483;DHT22;9882;51.166;6.992;2023-05-17T11:45:59;14.30;99.90
19483;DHT22;9882;51.166;6.992;2023-05-17T11:48:57;14.80;99.90
19483;DHT22;9882;51.166;6.992;2023-05-17T11:51:50;15.10;99.90
19483;DHT22;9882;51.166;6.992;2023-05-17T11:54:36;14.90;99.90
19483;DHT22;9882;51.166;6.992;2023-05-17T11:57:37;14.20;99.90
19483;DHT22;9882;51.166;6.992;2023-05-17T12:00:07;14.10;99.90
19483;DHT22;9882;51.166;6.992;2023-05-17T12:02:44;14.30;99.90
19483;DHT22;9882;51.166;6.992;2023-05-17T12:05:21;14.10;99.90
19483;DHT22;9882;51.166;6.992;2023-05-17T12:08:14;14.00;99.90
19483;DHT22;9882;51.166;6.992;2023-05-17T12:11:07;14.30;99.90
19483;DHT22;9882;51.166;6.992;2023-05-17T12:13:58;14.30;99.90
19483;DHT22;9882;51.166;6.992;2023-05-17T12:16:28;14.80;99.90
19483;DHT22;9882;51.166;6.992;2023-05-17T12:19:01;15.10;99.90
19483;DHT22;9882;51.166;6.992;2023-05-17T12:28:54;14.70;99.90
19483;DHT22;9882;51.166;6.992;2023-05-17T12:31:38;14.50;99.90
19483;DHT22;9882;51.166;6.992;2023-05-17T12:35:10;14.90;99.90
19483;DHT22;9882;51.166;6.992;2023-05-17T12:37:41;15.10;99.90
19483;DHT22;9882;51.166;6.992;2023-05-17T12:40:11;15.70;99.90
19483;DHT22;9882;51.166;6.992;2023-05-17T12:42:40;16.20;99.90
19483;DHT22;9882;51.166;6.992;2023-05-17T12:45:11;15.70;99.90
19483;DHT22;9882;51.166;6.992;2023-05-17T12:47:40;15.50;99.90
19483;DHT22;9882;51.166;6.992;2023-05-17T12:50:10;15.50;99.90
19483;DHT22;9882;51.166;6.992;2023-05-17T12:52:40;15.70;99.90
19483;DHT22;9882;51.166;6.992;2023-05-17T12:55:17;16.00;99.90
19483;DHT22;9882;51.166;6.992;2023-05-17T12:57:50;16.30;99.90
19483;DHT22;9882;51.166;6.992;2023-05-17T13:00:21;15.60;99.90
19483;DHT22;9882;51.166;6.992;2023-05-17T13:02:50;15.60;99.90
19483;DHT22;9882;51.166;6.992;2023-05-17T13:05:18;16.10;99.90
19483;DHT22;9882;51.166;6.992;2023-05-17T13:07:47;16.60;99.90
19483;DHT22;9882;51.166;6.992;2023-05-17T13:10:25;15.50;99.90
19483;DHT22;9882;51.166;6.992;2023-05-17T13:13:01;15.10;99.90
19483;DHT22;9882;51.166;6.992;2023-05-17T13:15:37;15.30;99.90
19483;DHT22;9882;51.166;6.992;2023-05-17T13:18:27;16.30;99.90
19483;DHT22;9882;51.166;6.992;2023-05-17T13:21:05;16.60;99.90
19483;DHT22;9882;51.166;6.992;2023-05-17T13:23:52;17.50;99.90
19483;DHT22;9882;51.166;6.992;2023-05-17T13:26:20;17.20;99.90
19483;DHT22;9882;51.166;6.992;2023-05-17T13:28:50;16.50;99.90
19483;DHT22;9882;51.166;6.992;2023-05-17T13:31:22;17.50;99.90
19483;DHT22;9882;51.166;6.992;2023-05-17T13:34:35;17.30;98.20
19483;DHT22;9882;51.166;6.992;2023-05-17T13:37:16;17.10;98.80
19483;DHT22;9882;51.166;6.992;2023-05-17T13:40:12;16.70;99.90
19483;DHT22;9882;51.166;6.992;2023-05-17T13:42:45;17.40;99.90
19483;DHT22;9882;51.166;6.992;2023-05-17T13:48:59;18.70;93.50
19483;DHT22;9882;51.166;6.992;2023-05-17T13:51:33;19.40;95.10
19483;DHT22;9882;51.166;6.992;2023-05-17T13:57:50;18.30;90.20
19483;DHT22;9882;51.166;6.992;2023-05-17T14:00:32;18.30;94.10
19483;DHT22;9882;51.166;6.992;2023-05-17T14:03:00;18.40;90.10
19483;DHT22;9882;51.166;6.992;2023-05-17T14:05:30;19.20;99.90
19483;DHT22;9882;51.166;6.992;2023-05-17T14:08:01;19.10;92.90
19483;DHT22;9882;51.166;6.992;2023-05-17T14:10:30;18.60;97.20
19483;DHT22;9882;51.166;6.992;2023-05-17T14:12:59;18.40;94.90
19483;DHT22;9882;51.166;6.992;2023-05-17T14:15:28;18.90;93.70
19483;DHT22;9882;51.166;6.992;2023-05-17T14:17:56;18.70;91.40
19483;DHT22;9882;51.166;6.992;2023-05-17T14:20:24;18.30;90.50
19483;DHT22;9882;51.166;6.992;2023-05-17T14:22:54;18.40;87.70
19483;DHT22;9882;51.166;6.992;2023-05-17T14:25:23;19.70;99.90
19483;DHT22;9882;51.166;6.992;2023-05-17T14:27:52;20.30;97.50
19483;DHT22;9882;51.166;6.992;2023-05-17T14:30:21;19.70;85.60
19483;DHT22;9882;51.166;6.992;2023-05-17T14:32:49;18.90;86.30
19483;DHT22;9882;51.166;6.992;2023-05-17T14:35:18;18.30;93.40
19483;DHT22;9882;51.166;6.992;2023-05-17T14:37:46;18.30;89.40
19483;DHT22;9882;51.166;6.992;2023-05-17T14:40:16;18.00;87.10
19483;DHT22;9882;51.166;6.992;2023-05-17T14:42:45;18.50;92.10
19483;DHT22;9882;51.166;6.992;2023-05-17T14:45:13;20.00;99.00
19483;DHT22;9882;51.166;6.992;2023-05-17T14:47:42;20.70;99.90
19483;DHT22;9882;51.166;6.992;2023-05-17T14:50:10;20.10;92.30
19483;DHT22;9882;51.166;6.992;2023-05-17T14:52:39;20.50;87.80
19483;DHT22;9882;51.166;6.992;2023-05-17T14:55:08;21.10;94.60
19483;DHT22;9882;51.166;6.992;2023-05-17T14:57:38;21.70;95.00
19483;DHT22;9882;51.166;6.992;2023-05-17T15:00:08;21.90;96.30
19483;DHT22;9882;51.166;6.992;2023-05-17T15:02:37;21.70;92.10
19483;DHT22;9882;51.166;6.992;2023-05-17T15:05:06;22.20;94.50
19483;DHT22;9882;51.166;6.992;2023-05-17T15:07:35;22.50;89.90
19483;DHT22;9882;51.166;6.992;2023-05-17T15:10:04;22.80;93.80
19483;DHT22;9882;51.166;6.992;2023-05-17T15:12:34;22.80;94.30
19483;DHT22;9882;51.166;6.992;2023-05-17T15:15:06;22.80;91.70
19483;DHT22;9882;51.166;6.992;2023-05-17T15:17:34;22.30;92.40
19483;DHT22;9882;51.166;6.992;2023-05-17T15:20:04;22.80;93.20
19483;DHT22;9882;51.166;6.992;2023-05-17T15:22:33;22.60;77.70
19483;DHT22;9882;51.166;6.992;2023-05-17T15:25:03;21.60;75.90
19483;DHT22;9882;51.166;6.992;2023-05-17T15:27:32;21.70;74.70
19483;DHT22;9882;51.166;6.992;2023-05-17T15:30:00;20.50;76.80
19483;DHT22;9882;51.166;6.992;2023-05-17T15:32:32;20.00;80.40
19483;DHT22;9882;51.166;6.992;2023-05-17T15:35:01;19.80;85.70
19483;DHT22;9882;51.166;6.992;2023-05-17T15:37:34;19.90;81.50
19483;DHT22;9882;51.166;6.992;2023-05-17T15:40:11;20.80;93.40
19483;DHT22;9882;51.166;6.992;2023-05-17T15:42:39;21.20;86.30
19483;DHT22;9882;51.166;6.992;2023-05-17T15:45:09;22.10;92.00
19483;DHT22;9882;51.166;6.992;2023-05-17T15:47:38;20.20;73.50
19483;DHT22;9882;51.166;6.992;2023-05-17T15:54:18;19.40;74.30
19483;DHT22;9882;51.166;6.992;2023-05-17T15:56:50;19.20;75.70
19483;DHT22;9882;51.166;6.992;2023-05-17T15:59:18;19.70;85.10
19483;DHT22;9882;51.166;6.992;2023-05-17T16:01:53;20.20;85.70
19483;DHT22;9882;51.166;6.992;2023-05-17T16:04:23;20.70;85.10
19483;DHT22;9882;51.166;6.992;2023-05-17T16:06:57;22.20;95.30
19483;DHT22;9882;51.166;6.992;2023-05-17T16:10:09;22.30;90.50
19483;DHT22;9882;51.166;6.992;2023-05-17T16:12:41;22.60;90.50
19483;DHT22;9882;51.166;6.992;2023-05-17T16:15:13;23.00;95.90
19483;DHT22;9882;51.166;6.992;2023-05-17T16:17:46;22.70;91.90
19483;DHT22;9882;51.166;6.992;2023-05-17T16:20:20;23.00;92.90
19483;DHT22;9882;51.166;6.992;2023-05-17T16:22:57;19.70;69.60
19483;DHT22;9882;51.166;6.992;2023-05-17T16:25:26;20.00;73.40
19483;DHT22;9882;51.166;6.992;2023-05-17T16:27:54;20.60;84.90
19483;DHT22;9882;51.166;6.992;2023-05-17T16:30:23;21.80;76.80
19483;DHT22;9882;51.166;6.992;2023-05-17T16:32:52;21.70;76.00
19483;DHT22;9882;51.166;6.992;2023-05-17T16:35:22;20.20;68.10
19483;DHT22;9882;51.166;6.992;2023-05-17T16:37:51;18.90;73.60
19483;DHT22;9882;51.166;6.992;2023-05-17T16:40:20;19.40;71.20
19483;DHT22;9882;51.166;6.992;2023-05-17T16:42:48;19.80;86.20
19483;DHT22;9882;51.166;6.992;2023-05-17T16:45:17;21.60;88.30
19483;DHT22;9882;51.166;6.992;2023-05-17T16:47:45;21.50;86.10
19483;DHT22;9882;51.166;6.992;2023-05-17T16:50:14;20.70;75.80
19483;DHT22;9882;51.166;6.992;2023-05-17T16:52:44;20.70;72.50
19483;DHT22;9882;51.166;6.992;2023-05-17T16:59:27;21.00;91.20
19483;DHT22;9882;51.166;6.992;2023-05-17T17:02:44;23.10;91.30
19483;DHT22;9882;51.166;6.992;2023-05-17T17:05:13;23.20;71.00